Time;durP1;ratioP1;P1;durP2;ratioP2;P2;SDS_P1;SDS_P2;PMS_P1;PMS_P2;Temp;Humidity;BMP_temperature;BMP_pressure;BME280_temperature;BME280_humidity;BME280_pressure;Samples;Min_cycle;Max_cycle;Signal;HPM_P1;HPM_P2
2023/06/12 00:04:04;;;;;;;4.75;4.10;;;;;;;24.33;36.96;101369.38;16115088;19;129504;-43
2023/06/12 00:09:26;;;;;;;5.50;3.90;;;;;;;24.33;36.79;101370.19;16114590;19;129438;-45
2023/06/12 00:14:48;;;;;;;5.30;4.35;;;;;;;24.33;37.22;101367.38;16116111;19;129546;-45
2023/06/12 00:20:10;;;;;;;4.53;4.13;;;;;;;24.31;36.95;101366.81;16115706;19;129520;-49
2023/06/12 00:25:33;;;;;;;5.38;4.25;;;;;;;24.32;36.83;101364.88;16115197;19;129638;-49
2023/06/12 00:30:55;;;;;;;5.97;3.90;;;;;;;24.30;36.89;101365.16;16113094;19;130293;-45
2023/06/12 00:36:16;;;;;;;4.60;4.18;;;;;;;24.30;36.62;101365.16;16112339;19;129948;-48
2023/06/12 00:41:38;;;;;;;4.82;4.20;;;;;;;24.30;36.89;101361.50;16114387;19;131071;-48
2023/06/12 00:47:00;;;;;;;5.03;4.25;;;;;;;24.30;36.92;101358.72;16104874;19;131387;-45
2023/06/12 00:52:26;;;;;;;6.05;4.53;;;;;;;24.30;36.79;101364.31;16114141;19;130594;-42
2023/06/12 00:57:48;;;;;;;5.18;3.90;;;;;;;24.28;36.98;101361.81;16113550;19;133496;-47
2023/06/12 01:03:12;;;;;;;4.57;4.18;;;;;;;24.27;37.15;101360.94;16111072;19;129236;-46
2023/06/12 01:08:48;;;;;;;5.13;3.93;;;;;;;24.27;36.78;101360.94;16107020;19;129610;-46
2023/06/12 01:14:16;;;;;;;6.78;4.10;;;;;;;24.25;37.09;101363.16;16109948;19;129223;-43
2023/06/12 01:19:41;;;;;;;5.65;4.32;;;;;;;24.24;37.06;101355.94;16109339;19;131717;-44
2023/06/12 01:25:24;;;;;;;6.68;4.60;;;;;;;24.23;36.93;101359.81;16104339;19;131843;-44
2023/06/12 01:31:06;;;;;;;4.75;4.18;;;;;;;24.24;36.90;101358.72;16107264;19;131173;-45
2023/06/12 01:36:35;;;;;;;5.28;4.78;;;;;;;24.22;37.16;101363.72;16101757;19;130382;-48
2023/06/12 01:41:58;;;;;;;6.10;4.40;;;;;;;24.22;36.91;101365.66;16101725;19;129771;-47
2023/06/12 01:47:21;;;;;;;6.85;4.20;;;;;;;24.22;36.89;101362.84;16109924;19;131545;-47
2023/06/12 01:52:43;;;;;;;7.47;4.90;;;;;;;24.20;36.68;101360.34;16124262;19;129319;-45
2023/06/12 01:58:05;;;;;;;4.88;4.30;;;;;;;24.20;36.88;101359.47;16117813;19;130923;-45
2023/06/12 02:03:28;;;;;;;4.88;4.40;;;;;;;24.19;37.09;101358.66;16122831;19;129752;-43
2023/06/12 02:08:50;;;;;;;5.00;4.50;;;;;;;24.19;37.08;101358.66;16120675;19;129406;-44
2023/06/12 02:14:12;;;;;;;5.50;4.60;;;;;;;24.19;36.92;101360.59;16120932;19;130927;-44
2023/06/12 02:19:34;;;;;;;4.82;4.40;;;;;;;24.18;36.71;101350.56;16118694;19;129515;-46
2023/06/12 02:24:56;;;;;;;4.88;4.28;;;;;;;24.17;36.92;101355.28;16116516;19;131457;-46
2023/06/12 02:30:18;;;;;;;6.20;4.85;;;;;;;24.16;36.97;101353.59;16117079;19;130232;-44
2023/06/12 02:35:40;;;;;;;8.13;4.22;;;;;;;24.17;37.15;101352.50;16115957;19;129513;-44
2023/06/12 02:41:02;;;;;;;6.20;4.80;;;;;;;24.16;36.76;101352.78;16118746;19;131072;-43
2023/06/12 02:46:24;;;;;;;8.70;4.40;;;;;;;24.15;37.12;101351.94;16119041;19;131328;-43
2023/06/12 02:51:46;;;;;;;5.25;4.45;;;;;;;24.14;36.88;101352.22;16119292;19;129461;-44
2023/06/12 02:57:08;;;;;;;5.32;4.15;;;;;;;24.14;36.75;101355.00;16116481;19;130633;-43
2023/06/12 03:02:30;;;;;;;4.40;4.00;;;;;;;24.13;36.90;101354.16;16110242;19;131674;-45
2023/06/12 03:07:52;;;;;;;5.30;4.20;;;;;;;24.12;36.98;101361.72;16117219;19;129877;-45
2023/06/12 03:13:14;;;;;;;5.40;4.50;;;;;;;24.12;37.04;101363.69;16119106;19;132264;-43
2023/06/12 03:18:36;;;;;;;5.18;4.30;;;;;;;24.11;36.94;101367.59;16116647;19;129999;-45
2023/06/12 03:23:58;;;;;;;5.22;4.32;;;;;;;24.11;36.85;101367.59;16116181;19;129677;-48
2023/06/12 03:29:20;;;;;;;5.43;4.25;;;;;;;24.10;37.01;101368.69;16112310;19;130436;-45
2023/06/12 03:34:42;;;;;;;6.95;4.72;;;;;;;24.10;37.16;101365.91;16113570;19;130460;-48
2023/06/12 03:40:05;;;;;;;6.15;4.20;;;;;;;24.10;36.74;101363.09;16115821;19;129788;-49
2023/06/12 03:45:27;;;;;;;4.47;4.07;;;;;;;24.09;36.72;101380.97;16110394;19;131369;-43
2023/06/12 03:50:49;;;;;;;6.47;4.45;;;;;;;24.08;36.89;101390.47;16112398;19;130663;-45
2023/06/12 03:56:11;;;;;;;7.28;4.22;;;;;;;24.07;36.86;101391.59;16111645;19;130710;-46
2023/06/12 04:01:33;;;;;;;5.07;3.95;;;;;;;24.08;36.89;101402.50;16114477;19;130353;-47
2023/06/12 04:06:55;;;;;;;4.80;4.30;;;;;;;24.07;36.78;101403.59;16114105;19;129971;-48
2023/06/12 04:12:17;;;;;;;6.25;3.92;;;;;;;24.05;36.84;101400.25;16113978;19;129650;-52
2023/06/12 04:17:39;;;;;;;5.22;4.47;;;;;;;24.05;36.88;101399.41;16111408;19;129728;-45
2023/06/12 04:23:04;;;;;;;4.75;4.25;;;;;;;24.04;36.61;101403.31;16111820;19;131223;-46
2023/06/12 04:28:28;;;;;;;4.75;4.00;;;;;;;24.04;36.84;101406.09;16112574;19;130313;-46
2023/06/12 04:33:51;;;;;;;4.97;4.05;;;;;;;24.04;36.73;101406.09;16110929;19;130313;-48
2023/06/12 04:39:13;;;;;;;4.82;4.32;;;;;;;24.03;36.43;101407.22;16111044;19;130717;-47
2023/06/12 04:44:37;;;;;;;5.05;4.25;;;;;;;24.03;36.91;101401.63;16109418;19;129801;-48
2023/06/12 04:49:59;;;;;;;8.02;3.95;;;;;;;24.03;36.58;101405.28;16108466;19;129402;-47
2023/06/12 04:55:22;;;;;;;4.30;3.90;;;;;;;24.02;36.78;101406.38;16108491;19;131333;-49
2023/06/12 05:00:47;;;;;;;5.70;4.18;;;;;;;24.03;36.75;101404.41;16104916;19;131004;-45
2023/06/12 05:06:09;;;;;;;5.57;4.25;;;;;;;24.02;36.78;101409.19;16110841;19;131506;-46
2023/06/12 05:11:31;;;;;;;4.75;3.90;;;;;;;24.02;36.84;101411.13;16110138;19;129748;-48
2023/06/12 05:16:54;;;;;;;6.30;4.00;;;;;;;24.02;36.76;101413.91;16106365;19;130339;-49
2023/06/12 05:22:16;;;;;;;6.53;3.95;;;;;;;24.01;36.74;101410.28;16110035;19;129494;-43
2023/06/12 05:27:38;;;;;;;8.25;4.22;;;;;;;24.02;36.64;101411.13;16119266;19;129758;-50
2023/06/12 05:33:02;;;;;;;4.85;3.97;;;;;;;24.01;36.67;101413.09;16116947;19;131182;-51
2023/06/12 05:38:25;;;;;;;8.52;4.72;;;;;;;24.01;36.56;101410.28;16122238;19;130193;-49
2023/06/12 05:43:47;;;;;;;6.60;4.38;;;;;;;24.03;36.45;101410.00;16115956;19;129503;-46
2023/06/12 05:49:09;;;;;;;8.02;4.82;;;;;;;24.05;36.51;101410.59;16109249;19;130526;-49
2023/06/12 05:54:32;;;;;;;13.75;4.80;;;;;;;24.06;36.16;101415.06;16116422;19;129640;-43
2023/06/12 05:59:54;;;;;;;6.95;4.70;;;;;;;24.07;36.22;101405.56;16116479;19;130494;-49
2023/06/12 06:05:19;;;;;;;10.45;5.38;;;;;;;24.09;35.81;101417.31;16116354;19;131358;-46
2023/06/12 06:10:41;;;;;;;7.78;5.40;;;;;;;24.09;35.69;101408.94;16120838;19;129382;-48
2023/06/12 06:16:04;;;;;;;7.15;4.90;;;;;;;24.12;35.63;101414.00;16116782;19;130029;-45
2023/06/12 06:21:31;;;;;;;11.98;4.95;;;;;;;24.14;35.37;101417.31;16116979;19;131336;-45
2023/06/12 06:26:53;;;;;;;7.90;4.90;;;;;;;24.15;35.51;101424.59;16119651;19;130040;-51
2023/06/12 06:32:16;;;;;;;6.63;5.15;;;;;;;24.13;35.22;101426.81;16119906;19;129693;-49
2023/06/12 06:37:38;;;;;;;8.70;4.70;;;;;;;24.14;35.73;101422.09;16116117;19;129452;-50
2023/06/12 06:43:01;;;;;;;7.80;5.15;;;;;;;24.13;35.63;101421.22;16113882;19;130079;-47
2023/06/12 06:48:22;;;;;;;5.30;4.72;;;;;;;24.12;35.68;101422.38;16116590;19;130535;-51
2023/06/12 06:53:44;;;;;;;6.88;4.70;;;;;;;24.12;35.75;101414.00;16118086;19;129457;-48
2023/06/12 06:59:06;;;;;;;5.82;4.60;;;;;;;24.11;35.29;101420.69;16117609;19;131506;-45
2023/06/12 07:04:28;;;;;;;14.32;5.25;;;;;;;24.10;35.62;101414.25;16113334;19;133398;-52
2023/06/12 07:09:50;;;;;;;6.72;4.85;;;;;;;24.10;35.85;101421.81;16118301;19;131766;-49
2023/06/12 07:15:12;;;;;;;9.57;5.07;;;;;;;24.09;35.59;101415.34;16115942;19;130854;-52
2023/06/12 07:20:34;;;;;;;9.27;4.95;;;;;;;24.09;35.27;101418.16;16111884;19;132078;-51
2023/06/12 07:25:57;;;;;;;7.65;4.75;;;;;;;24.08;35.74;101416.47;16115727;19;130476;-50
2023/06/12 07:31:19;;;;;;;8.15;4.93;;;;;;;24.09;35.82;101415.34;16111985;19;130951;-49
2023/06/12 07:36:41;;;;;;;6.38;4.75;;;;;;;24.09;35.52;101415.34;16109118;19;129496;-50
2023/06/12 07:42:05;;;;;;;7.43;4.68;;;;;;;24.09;35.85;101409.75;16112387;19;129533;-50
2023/06/12 07:47:27;;;;;;;6.13;4.70;;;;;;;24.09;35.44;101408.94;16113700;19;129812;-51
2023/06/12 07:52:49;;;;;;;6.07;4.78;;;;;;;24.10;35.65;101405.03;16113560;19;129380;-50
2023/06/12 07:58:12;;;;;;;6.82;4.65;;;;;;;24.10;35.68;101405.84;16112050;19;130680;-51
2023/06/12 08:03:38;;;;;;;7.97;4.50;;;;;;;24.10;35.43;101403.06;16113103;19;129158;-49
2023/06/12 08:09:02;;;;;;;8.75;4.55;;;;;;;24.11;35.53;101406.72;16112735;19;129510;-49
2023/06/12 08:14:24;;;;;;;8.00;4.35;;;;;;;24.11;35.65;101401.13;16108742;19;131094;-48
2023/06/12 08:19:48;;;;;;;8.65;4.68;;;;;;;24.11;35.72;101399.16;16107788;19;130761;-49
2023/06/12 08:25:10;;;;;;;4.97;4.43;;;;;;;24.11;35.43;101395.53;16108584;19;130076;-47
2023/06/12 08:30:32;;;;;;;5.40;4.22;;;;;;;24.11;35.67;101395.53;16114539;19;130066;-47
2023/06/12 08:35:54;;;;;;;5.22;3.83;;;;;;;24.11;35.67;101401.13;16112096;19;131317;-47
2023/06/12 08:41:18;;;;;;;5.97;4.05;;;;;;;24.12;35.58;101400.00;16111171;19;129265;-44
2023/06/12 08:46:41;;;;;;;6.68;4.28;;;;;;;24.13;35.79;101390.50;16112004;19;130728;-50
2023/06/12 08:52:03;;;;;;;11.05;3.95;;;;;;;24.12;35.74;101394.44;16112889;19;130288;-45
2023/06/12 08:57:26;;;;;;;7.07;4.20;;;;;;;24.12;35.46;101389.66;16111209;19;129468;-45
2023/06/12 09:02:53;;;;;;;7.00;4.50;;;;;;;24.12;35.20;101383.25;16109819;19;131560;-50
2023/06/12 09:08:16;;;;;;;10.25;4.50;;;;;;;24.14;35.45;101378.19;16108498;19;130896;-48
2023/06/12 09:13:44;;;;;;;5.00;4.03;;;;;;;24.15;35.38;101385.47;16106376;19;130273;-48
2023/06/12 09:19:06;;;;;;;6.95;4.50;;;;;;;24.16;35.70;101377.94;16107187;19;130668;-46
2023/06/12 09:24:28;;;;;;;6.15;4.65;;;;;;;24.16;35.52;101369.56;16102338;19;129495;-47
2023/06/12 09:29:58;;;;;;;7.30;3.90;;;;;;;24.17;35.40;101369.28;16106173;19;130486;-47
2023/06/12 09:35:20;;;;;;;4.88;4.03;;;;;;;24.17;35.33;101371.25;16111123;19;130763;-45
2023/06/12 09:40:42;;;;;;;5.65;3.95;;;;;;;24.17;35.50;101362.84;16108029;19;129563;-51
2023/06/12 09:46:07;;;;;;;7.03;4.22;;;;;;;24.18;35.52;101368.16;16107983;19;129552;-46
2023/06/12 09:51:32;;;;;;;9.27;4.18;;;;;;;24.17;35.66;101368.44;16111776;19;130606;-48
2023/06/12 09:56:57;;;;;;;7.23;4.53;;;;;;;24.21;35.60;101361.16;16101606;19;130064;-48
2023/06/12 10:02:20;;;;;;;7.68;4.78;;;;;;;24.22;35.56;101366.50;16105918;19;130860;-47
2023/06/12 10:07:51;;;;;;;12.98;4.80;;;;;;;24.25;35.72;101373.53;16104501;19;131123;-50
2023/06/12 10:13:14;;;;;;;7.60;4.43;;;;;;;24.25;35.48;101367.94;16121074;19;134189;-47
2023/06/12 10:18:38;;;;;;;8.90;4.97;;;;;;;24.27;35.35;101363.75;16120016;19;131382;-45
2023/06/12 10:24:00;;;;;;;8.30;4.80;;;;;;;24.29;35.19;101363.47;16118980;19;130156;-52
2023/06/12 10:29:30;;;;;;;10.18;4.90;;;;;;;24.33;35.05;101366.56;16109602;19;130260;-48
2023/06/12 10:34:54;;;;;;;7.07;4.57;;;;;;;24.34;35.44;101363.47;16118720;19;129703;-48
2023/06/12 10:40:20;;;;;;;8.18;4.80;;;;;;;24.36;35.41;101357.63;16113771;19;130002;-46
2023/06/12 10:46:02;;;;;;;9.75;4.70;;;;;;;24.37;35.30;101345.34;16118034;19;130986;-49
2023/06/12 10:51:33;;;;;;;13.57;5.22;;;;;;;24.39;35.42;101341.13;16116958;19;129550;-47
2023/06/12 10:56:58;;;;;;;8.82;4.57;;;;;;;24.38;34.97;101333.00;16116633;19;129965;-52
2023/06/12 11:02:21;;;;;;;9.10;4.40;;;;;;;24.39;34.67;101329.94;16113211;19;130670;-49
2023/06/12 11:07:43;;;;;;;6.43;4.40;;;;;;;24.42;34.67;101323.81;16109672;19;130888;-48
2023/06/12 11:13:05;;;;;;;13.25;4.90;;;;;;;24.42;34.30;101334.16;16110683;19;130946;-49
2023/06/12 11:18:27;;;;;;;6.63;4.35;;;;;;;24.42;34.23;101334.16;16116404;19;129928;-45
2023/06/12 11:23:49;;;;;;;10.50;4.32;;;;;;;24.43;34.15;101324.63;16112943;19;129839;-47
2023/06/12 11:29:15;;;;;;;6.90;4.22;;;;;;;24.43;34.28;101321.84;16112326;19;131278;-52
2023/06/12 11:34:41;;;;;;;7.75;4.40;;;;;;;24.45;34.33;101314.03;16106203;19;129677;-48
2023/06/12 11:40:09;;;;;;;9.75;4.55;;;;;;;24.44;33.81;101309.53;16108417;19;131703;-50
2023/06/12 11:45:32;;;;;;;7.45;3.97;;;;;;;24.45;33.91;101319.63;16107671;19;130844;-47
2023/06/12 11:50:54;;;;;;;4.95;4.03;;;;;;;24.45;33.58;101302.84;16112043;19;129722;-49
2023/06/12 11:56:16;;;;;;;5.93;4.13;;;;;;;24.46;33.72;101301.72;16111024;19;129655;-49
2023/06/12 12:01:48;;;;;;;6.18;4.22;;;;;;;24.48;33.72;101293.91;16109455;19;130812;-49
2023/06/12 12:07:10;;;;;;;5.53;4.20;;;;;;;24.48;33.83;101293.03;16108487;19;130449;-47
2023/06/12 12:12:40;;;;;;;7.47;4.43;;;;;;;24.50;34.09;101297.22;16111149;19;131715;-53
2023/06/12 12:18:02;;;;;;;6.55;3.90;;;;;;;24.50;34.10;101296.41;16108925;19;129655;-51
2023/06/12 12:23:24;;;;;;;6.13;4.00;;;;;;;24.50;33.99;101286.03;16105307;19;130318;-49
2023/06/12 12:28:47;;;;;;;8.13;4.40;;;;;;;24.50;34.02;101286.03;16107147;19;129865;-48
2023/06/12 12:34:09;;;;;;;4.70;3.67;;;;;;;24.49;33.97;101278.81;16106978;19;136803;-49
2023/06/12 12:39:31;;;;;;;6.15;3.90;;;;;;;24.50;33.93;101274.84;16113764;19;129440;-47
2023/06/12 12:44:53;;;;;;;5.72;4.18;;;;;;;24.52;34.03;101278.22;16109631;19;130955;-47
2023/06/12 12:50:18;;;;;;;4.78;4.25;;;;;;;24.52;34.13;101267.03;16108910;19;130831;-46
2023/06/12 12:55:45;;;;;;;4.75;3.75;;;;;;;24.52;34.08;101271.81;16109364;19;130013;-47
2023/06/12 13:01:07;;;;;;;4.97;3.72;;;;;;;24.52;33.92;101264.22;16110093;19;131356;-47
2023/06/12 13:06:29;;;;;;;6.78;3.80;;;;;;;24.52;33.92;101250.25;16107076;19;130464;-47
2023/06/12 13:11:51;;;;;;;4.82;3.63;;;;;;;24.52;33.98;101250.25;16096898;19;131452;-47
2023/06/12 13:59:55;;;;;;;11.88;4.20;;;;;;;24.14;31.81;101224.47;16188188;19;130868;-43
2023/06/12 14:05:17;;;;;;;5.47;3.80;;;;;;;24.52;31.14;101222.28;16184262;19;130200;-49
2023/06/12 14:10:42;;;;;;;14.63;4.13;;;;;;;24.73;30.42;101219.50;16181556;19;129663;-43
2023/06/12 14:16:04;;;;;;;8.30;3.83;;;;;;;24.84;30.35;101220.31;16184158;19;130320;-41
2023/06/12 14:21:27;;;;;;;9.77;4.32;;;;;;;24.90;30.07;101215.56;16179723;19;132725;-46
2023/06/12 14:26:48;;;;;;;7.13;3.80;;;;;;;24.91;30.54;101208.84;16177584;19;130852;-42
2023/06/12 14:32:10;;;;;;;6.70;4.00;;;;;;;24.85;30.60;101197.66;16184627;19;130213;-45
2023/06/12 14:37:33;;;;;;;9.95;4.00;;;;;;;24.80;31.16;101194.84;16183528;19;131554;-46
2023/06/12 14:42:55;;;;;;;8.15;4.03;;;;;;;24.77;30.82;101192.63;16181157;19;130981;-42
2023/06/12 14:48:18;;;;;;;5.65;3.75;;;;;;;24.74;31.34;101184.78;16182977;19;130999;-42
2023/06/12 14:53:40;;;;;;;7.00;4.30;;;;;;;24.71;31.11;101182.56;16175913;19;132863;-42
2023/06/12 14:59:02;;;;;;;7.63;4.20;;;;;;;24.70;31.28;101169.69;16141664;19;129482;-46
2023/06/12 15:04:24;;;;;;;8.20;4.50;;;;;;;24.69;31.41;101173.59;16119751;19;129844;-42
2023/06/12 15:09:46;;;;;;;9.57;4.32;;;;;;;24.68;31.62;101174.72;16125332;19;131947;-41
2023/06/12 15:15:09;;;;;;;7.05;4.38;;;;;;;24.66;31.50;101169.44;16124358;19;129900;-44
2023/06/12 15:20:31;;;;;;;6.97;4.30;;;;;;;24.66;31.41;101174.16;16120461;19;130516;-42
2023/06/12 15:25:53;;;;;;;9.07;3.80;;;;;;;24.65;31.67;101170.53;16126725;19;129643;-44
2023/06/12 15:31:15;;;;;;;6.05;4.03;;;;;;;24.64;31.71;101166.06;16120556;19;130480;-42
2023/06/12 15:36:37;;;;;;;6.90;4.15;;;;;;;24.64;31.66;101168.00;16116715;19;129479;-42
2023/06/12 15:42:02;;;;;;;7.15;3.88;;;;;;;24.63;31.77;101158.78;16119030;19;130120;-44
2023/06/12 15:47:26;;;;;;;6.57;4.30;;;;;;;24.63;31.89;101166.34;16116285;19;130077;-42
2023/06/12 15:52:48;;;;;;;5.53;3.92;;;;;;;24.62;32.03;101162.72;16112690;19;129631;-47
2023/06/12 15:58:10;;;;;;;5.57;3.90;;;;;;;24.62;32.03;101164.66;16113978;19;129669;-45
2023/06/12 16:03:32;;;;;;;6.03;3.83;;;;;;;24.61;32.40;101152.63;16121890;19;129684;-50
2023/06/12 16:08:54;;;;;;;5.50;4.03;;;;;;;24.61;32.34;101163.00;16109608;19;129876;-49
2023/06/12 16:14:16;;;;;;;7.35;4.22;;;;;;;24.61;32.35;101140.63;16116647;19;130135;-48
2023/06/12 16:19:38;;;;;;;5.00;3.95;;;;;;;24.61;32.30;101149.00;16110659;19;129990;-51
2023/06/12 16:25:00;;;;;;;4.93;4.32;;;;;;;24.62;32.36;101136.69;16114664;19;130606;-47
2023/06/12 16:30:22;;;;;;;5.75;3.92;;;;;;;24.61;32.37;101133.06;16113846;19;131727;-47
2023/06/12 16:35:44;;;;;;;5.07;3.90;;;;;;;24.62;32.48;101131.09;16116024;19;129741;-47
2023/06/12 16:41:06;;;;;;;5.15;3.65;;;;;;;24.62;32.39;101131.09;16113576;19;133942;-41
2023/06/12 16:46:28;;;;;;;5.13;3.88;;;;;;;24.62;32.37;101125.50;16105361;19;130835;-45
2023/06/12 16:51:50;;;;;;;4.47;4.00;;;;;;;24.62;32.52;101119.91;16111033;19;130406;-43
2023/06/12 16:57:12;;;;;;;5.53;4.00;;;;;;;24.63;32.46;101124.38;16112450;19;130117;-45
2023/06/12 17:02:34;;;;;;;4.20;3.67;;;;;;;24.63;32.34;101127.16;16113891;19;131542;-43
2023/06/12 17:07:57;;;;;;;5.30;3.88;;;;;;;24.62;32.31;101126.34;16113356;19;130109;-43
2023/06/12 17:13:19;;;;;;;5.60;4.20;;;;;;;24.62;32.66;101125.50;16111310;19;129798;-45
2023/06/12 17:18:40;;;;;;;7.80;3.95;;;;;;;24.63;32.69;101127.16;16106365;19;129597;-42
2023/06/12 17:24:03;;;;;;;7.38;4.07;;;;;;;24.62;32.72;101122.69;16091222;19;131215;-46
2023/06/12 17:29:25;;;;;;;8.02;4.18;;;;;;;24.61;32.94;101121.88;16106394;19;130303;-45
2023/06/12 17:34:48;;;;;;;5.07;4.10;;;;;;;24.62;32.67;101119.91;16114106;19;133832;-43
2023/06/12 17:40:11;;;;;;;6.85;3.92;;;;;;;24.62;33.14;101119.91;16112460;19;130205;-44
2023/06/12 17:45:33;;;;;;;6.30;3.90;;;;;;;24.62;32.68;101114.31;16112776;19;129609;-45
2023/06/12 17:50:56;;;;;;;5.90;4.05;;;;;;;24.61;33.23;101107.88;16105701;19;130792;-48
2023/06/12 17:56:18;;;;;;;6.15;3.92;;;;;;;24.63;32.87;101107.59;16107931;19;129749;-44
2023/06/12 18:01:40;;;;;;;6.38;4.20;;;;;;;24.62;32.88;101103.97;16106073;19;130872;-44
2023/06/12 18:07:03;;;;;;;6.05;3.80;;;;;;;24.63;33.06;101111.25;16106912;19;129470;-42
2023/06/12 18:12:25;;;;;;;7.68;4.53;;;;;;;24.65;33.02;101110.94;16111568;19;129356;-43
2023/06/12 18:17:47;;;;;;;7.30;4.45;;;;;;;24.65;32.75;101102.56;16107107;19;130559;-46
2023/06/12 18:23:09;;;;;;;4.82;4.32;;;;;;;24.65;32.74;101096.97;16108079;19;130380;-43
2023/06/12 18:28:32;;;;;;;7.32;4.40;;;;;;;24.65;33.28;101096.97;16095332;19;131335;-41
2023/06/12 18:33:54;;;;;;;8.80;4.38;;;;;;;24.65;32.93;101102.56;16117065;19;131040;-43
2023/06/12 18:39:16;;;;;;;5.35;3.80;;;;;;;24.65;32.98;101096.97;16121363;19;130263;-42
2023/06/12 18:44:38;;;;;;;5.93;4.40;;;;;;;24.63;33.19;101108.44;16117788;19;130026;-46
2023/06/12 18:50:00;;;;;;;8.02;4.25;;;;;;;24.65;33.47;101103.41;16117531;19;129918;-44
2023/06/12 18:55:22;;;;;;;7.85;4.38;;;;;;;24.66;33.57;101095.84;16113057;19;129780;-43
2023/06/12 19:00:44;;;;;;;8.10;3.95;;;;;;;24.68;33.60;101102.00;16117027;19;130232;-44
2023/06/12 19:06:06;;;;;;;11.20;4.65;;;;;;;24.70;34.31;101105.34;16112726;19;131210;-41
2023/06/12 19:11:28;;;;;;;11.43;4.50;;;;;;;24.74;34.53;101109.22;16116379;19;129646;-44
2023/06/12 19:16:52;;;;;;;8.73;4.53;;;;;;;24.78;34.55;101109.53;16116810;19;130141;-44
2023/06/12 19:22:15;;;;;;;8.73;4.72;;;;;;;24.80;34.65;101124.91;16116155;19;131005;-44
2023/06/12 19:27:37;;;;;;;12.77;4.57;;;;;;;24.84;34.49;101134.41;16114874;19;129688;-42
2023/06/12 19:32:59;;;;;;;14.63;4.97;;;;;;;24.86;34.36;101129.34;16115821;19;130738;-41
2023/06/12 19:38:21;;;;;;;6.65;5.10;;;;;;;24.90;34.59;101140.00;16113418;19;130767;-42
2023/06/12 19:43:43;;;;;;;8.20;4.72;;;;;;;24.91;34.11;101144.50;16113457;19;130901;-48
2023/06/12 19:49:05;;;;;;;8.15;5.03;;;;;;;24.93;33.91;101147.84;16112033;19;131060;-42
2023/06/12 19:54:27;;;;;;;8.05;4.75;;;;;;;24.93;34.12;101164.63;16112095;19;130712;-45
2023/06/12 19:59:49;;;;;;;8.98;4.85;;;;;;;24.95;34.20;101168.00;16112730;19;130261;-45
2023/06/12 20:05:11;;;;;;;7.35;4.68;;;;;;;24.95;34.06;101176.38;16113423;19;130394;-46
2023/06/12 20:10:34;;;;;;;12.68;5.38;;;;;;;24.95;34.01;101173.59;16114007;19;131658;-50
2023/06/12 20:15:56;;;;;;;15.05;5.30;;;;;;;24.98;34.55;101176.66;16110242;19;129677;-49
2023/06/12 20:21:19;;;;;;;15.70;5.43;;;;;;;25.02;34.69;101182.50;16108940;19;130056;-46
2023/06/12 20:26:41;;;;;;;14.95;5.25;;;;;;;25.06;34.81;101185.56;16115007;19;130394;-43
2023/06/12 20:32:07;;;;;;;10.88;5.10;;;;;;;25.07;35.07;101188.13;16113991;19;129422;-41
2023/06/12 20:37:29;;;;;;;13.32;5.10;;;;;;;25.10;35.11;101193.16;16117000;19;130070;-45
2023/06/12 20:42:51;;;;;;;11.30;4.90;;;;;;;25.10;35.22;101195.94;16116295;19;134838;-41
2023/06/12 20:48:13;;;;;;;12.70;5.10;;;;;;;25.12;35.02;101195.66;16115829;19;131084;-44
2023/06/12 20:53:35;;;;;;;8.02;5.47;;;;;;;25.12;35.21;101196.47;16110086;19;130793;-43
2023/06/12 20:58:57;;;;;;;10.38;5.03;;;;;;;25.09;35.22;101202.66;16110248;19;130948;-40
2023/06/12 21:04:19;;;;;;;10.25;5.10;;;;;;;25.08;35.00;101206.59;16111374;19;130149;-43
2023/06/12 21:09:42;;;;;;;11.70;4.90;;;;;;;25.06;34.81;101202.38;16113238;19;129540;-40
2023/06/12 21:15:05;;;;;;;7.00;5.18;;;;;;;25.05;35.02;101198.75;16111915;19;130857;-41
2023/06/12 21:20:26;;;;;;;8.38;5.32;;;;;;;25.03;34.61;101198.19;16111742;19;131848;-41
2023/06/12 21:25:48;;;;;;;6.95;5.07;;;;;;;25.01;34.54;101200.44;16112639;19;129659;-41
2023/06/12 21:31:10;;;;;;;9.52;5.40;;;;;;;24.99;34.64;101197.94;16112531;19;131164;-42
2023/06/12 21:36:32;;;;;;;11.07;5.65;;;;;;;24.99;34.61;101197.94;16110218;19;129451;-44
2023/06/12 21:41:54;;;;;;;7.88;5.55;;;;;;;24.98;34.69;101195.41;16110992;19;130192;-42
2023/06/12 21:47:16;;;;;;;9.35;4.90;;;;;;;24.96;34.75;101198.47;16108150;19;131492;-43
2023/06/12 21:52:38;;;;;;;9.10;5.03;;;;;;;24.95;34.69;101199.59;16108375;19;130304;-42
2023/06/12 21:58:01;;;;;;;7.68;4.80;;;;;;;24.95;34.56;101202.41;16108066;19;129745;-43
2023/06/12 22:03:27;;;;;;;11.65;4.78;;;;;;;24.95;34.44;101195.97;16109089;19;131027;-41
2023/06/12 22:08:49;;;;;;;8.75;5.28;;;;;;;24.95;34.43;101193.19;16117938;19;130484;-43
2023/06/12 22:14:11;;;;;;;7.30;5.20;;;;;;;24.95;34.27;101201.56;16129324;19;129838;-42
2023/06/12 22:19:33;;;;;;;7.40;4.75;;;;;;;24.95;34.36;101202.41;16121119;19;135124;-42
2023/06/12 22:24:55;;;;;;;8.85;4.85;;;;;;;24.96;34.64;101200.47;16122793;19;130775;-43
2023/06/12 22:30:17;;;;;;;7.80;4.80;;;;;;;24.96;34.50;101203.25;16124302;19;129406;-40
2023/06/12 22:35:42;;;;;;;6.88;4.95;;;;;;;24.94;34.72;101208.28;16123127;19;130391;-40
2023/06/12 22:41:04;;;;;;;10.20;5.37;;;;;;;24.92;34.30;101203.00;16123282;19;131235;-46
2023/06/12 22:46:26;;;;;;;9.00;5.38;;;;;;;24.91;34.33;101203.25;16123108;19;130126;-42
2023/06/12 22:51:48;;;;;;;7.35;5.03;;;;;;;24.86;34.28;101207.69;16121223;19;130602;-41
2023/06/12 22:57:10;;;;;;;6.38;4.85;;;;;;;24.84;34.25;101211.91;16119632;19;130656;-44
2023/06/12 23:02:32;;;;;;;8.25;4.75;;;;;;;24.81;34.52;101209.66;16116369;19;131724;-42
2023/06/12 23:07:54;;;;;;;10.38;5.00;;;;;;;24.79;34.45;101220.31;16116637;19;129618;-41
2023/06/12 23:13:16;;;;;;;6.88;4.70;;;;;;;24.77;34.14;101216.97;16114638;19;129561;-44
2023/06/12 23:18:40;;;;;;;5.90;5.07;;;;;;;24.74;34.20;101218.34;16116625;19;130531;-42
2023/06/12 23:24:05;;;;;;;6.80;4.82;;;;;;;24.73;34.30;101211.09;16118790;19;131022;-45
2023/06/12 23:29:27;;;;;;;6.70;5.05;;;;;;;24.72;34.65;101220.63;16113699;19;129409;-43
2023/06/12 23:34:49;;;;;;;9.27;5.20;;;;;;;24.69;33.90;101219.19;16115168;19;130275;-43
2023/06/12 23:40:12;;;;;;;7.03;5.43;;;;;;;24.67;33.88;101215.88;16120696;19;135372;-45
2023/06/12 23:45:34;;;;;;;5.63;4.75;;;;;;;24.66;34.18;101216.13;16112764;19;129821;-45
2023/06/12 23:50:56;;;;;;;7.22;5.32;;;;;;;24.65;34.32;101218.09;16118825;19;132123;-43
2023/06/12 23:56:20;;;;;;;7.63;5.35;;;;;;;24.64;34.26;101212.75;16115884;19;130969;-42
